sensor_id;sensor_type;location;lat;lon;timestamp;P1;durP1;ratioP1;P2;durP2;ratioP2
6292;SDS011;3179;54.350;10.102;2023-12-07T00:01:04;136.90;;;61.43;;
6292;SDS011;3179;54.350;10.102;2023-12-07T00:03:31;155.90;;;66.90;;
6292;SDS011;3179;54.350;10.102;2023-12-07T00:05:59;149.47;;;65.33;;
6292;SDS011;3179;54.350;10.102;2023-12-07T00:08:26;169.73;;;71.43;;
6292;SDS011;3179;54.350;10.102;2023-12-07T00:10:53;149.57;;;67.00;;
6292;SDS011;3179;54.350;10.102;2023-12-07T00:13:19;150.80;;;69.37;;
6292;SDS011;3179;54.350;10.102;2023-12-07T00:15:46;169.80;;;68.17;;
6292;SDS011;3179;54.350;10.102;2023-12-07T00:18:13;164.57;;;60.57;;
6292;SDS011;3179;54.350;10.102;2023-12-07T00:20:40;147.40;;;58.97;;
6292;SDS011;3179;54.350;10.102;2023-12-07T00:23:09;173.40;;;64.33;;
6292;SDS011;3179;54.350;10.102;2023-12-07T00:25:35;155.90;;;66.03;;
6292;SDS011;3179;54.350;10.102;2023-12-07T00:28:03;154.63;;;62.03;;
6292;SDS011;3179;54.350;10.102;2023-12-07T00:30:30;171.77;;;68.93;;
6292;SDS011;3179;54.350;10.102;2023-12-07T00:32:57;195.73;;;75.83;;
6292;SDS011;3179;54.350;10.102;2023-12-07T00:35:24;161.80;;;66.00;;
6292;SDS011;3179;54.350;10.102;2023-12-07T00:37:54;162.07;;;63.83;;
6292;SDS011;3179;54.350;10.102;2023-12-07T00:40:22;201.30;;;73.90;;
6292;SDS011;3179;54.350;10.102;2023-12-07T00:42:49;184.87;;;60.87;;
6292;SDS011;3179;54.350;10.102;2023-12-07T00:45:16;188.13;;;65.10;;
6292;SDS011;3179;54.350;10.102;2023-12-07T00:47:43;175.67;;;64.87;;
6292;SDS011;3179;54.350;10.102;2023-12-07T00:50:11;190.43;;;67.70;;
6292;SDS011;3179;54.350;10.102;2023-12-07T00:52:39;178.53;;;65.83;;
6292;SDS011;3179;54.350;10.102;2023-12-07T00:55:06;162.03;;;59.10;;
6292;SDS011;3179;54.350;10.102;2023-12-07T00:57:35;183.53;;;70.80;;
6292;SDS011;3179;54.350;10.102;2023-12-07T01:00:02;187.37;;;67.20;;
6292;SDS011;3179;54.350;10.102;2023-12-07T01:02:29;174.17;;;64.87;;
6292;SDS011;3179;54.350;10.102;2023-12-07T01:04:56;184.20;;;71.00;;
6292;SDS011;3179;54.350;10.102;2023-12-07T01:07:23;190.37;;;65.50;;
6292;SDS011;3179;54.350;10.102;2023-12-07T01:09:50;149.47;;;56.97;;
6292;SDS011;3179;54.350;10.102;2023-12-07T01:12:17;172.07;;;62.30;;
6292;SDS011;3179;54.350;10.102;2023-12-07T01:14:45;174.03;;;68.30;;
6292;SDS011;3179;54.350;10.102;2023-12-07T01:17:12;162.10;;;63.03;;
6292;SDS011;3179;54.350;10.102;2023-12-07T01:19:39;154.93;;;51.77;;
6292;SDS011;3179;54.350;10.102;2023-12-07T01:22:06;153.43;;;50.43;;
6292;SDS011;3179;54.350;10.102;2023-12-07T01:24:32;158.33;;;60.73;;
6292;SDS011;3179;54.350;10.102;2023-12-07T01:26:59;161.13;;;60.33;;
6292;SDS011;3179;54.350;10.102;2023-12-07T01:29:26;179.23;;;64.67;;
6292;SDS011;3179;54.350;10.102;2023-12-07T01:31:54;146.20;;;58.63;;
6292;SDS011;3179;54.350;10.102;2023-12-07T01:34:21;159.70;;;61.90;;
6292;SDS011;3179;54.350;10.102;2023-12-07T01:36:48;159.87;;;57.87;;
6292;SDS011;3179;54.350;10.102;2023-12-07T01:39:14;150.97;;;57.07;;
6292;SDS011;3179;54.350;10.102;2023-12-07T01:41:41;162.60;;;58.87;;
6292;SDS011;3179;54.350;10.102;2023-12-07T01:44:08;148.17;;;60.50;;
6292;SDS011;3179;54.350;10.102;2023-12-07T01:46:35;152.77;;;58.07;;
6292;SDS011;3179;54.350;10.102;2023-12-07T01:49:04;152.03;;;57.37;;
6292;SDS011;3179;54.350;10.102;2023-12-07T01:51:31;158.47;;;62.10;;
6292;SDS011;3179;54.350;10.102;2023-12-07T01:53:58;153.67;;;61.43;;
6292;SDS011;3179;54.350;10.102;2023-12-07T01:56:25;166.57;;;60.03;;
6292;SDS011;3179;54.350;10.102;2023-12-07T01:58:52;146.40;;;54.07;;
6292;SDS011;3179;54.350;10.102;2023-12-07T02:01:19;185.03;;;62.77;;
6292;SDS011;3179;54.350;10.102;2023-12-07T02:03:47;130.10;;;52.43;;
6292;SDS011;3179;54.350;10.102;2023-12-07T02:06:15;143.27;;;53.07;;
6292;SDS011;3179;54.350;10.102;2023-12-07T02:08:43;135.10;;;52.60;;
6292;SDS011;3179;54.350;10.102;2023-12-07T02:11:10;138.13;;;53.13;;
6292;SDS011;3179;54.350;10.102;2023-12-07T02:13:37;135.30;;;52.93;;
6292;SDS011;3179;54.350;10.102;2023-12-07T02:16:06;142.07;;;58.07;;
6292;SDS011;3179;54.350;10.102;2023-12-07T02:18:40;130.43;;;54.60;;
6292;SDS011;3179;54.350;10.102;2023-12-07T02:21:12;131.03;;;51.20;;
6292;SDS011;3179;54.350;10.102;2023-12-07T02:23:44;132.77;;;55.43;;
6292;SDS011;3179;54.350;10.102;2023-12-07T02:26:22;141.40;;;55.27;;
6292;SDS011;3179;54.350;10.102;2023-12-07T02:29:22;134.33;;;55.10;;
6292;SDS011;3179;54.350;10.102;2023-12-07T02:31:49;134.03;;;51.47;;
6292;SDS011;3179;54.350;10.102;2023-12-07T02:34:16;125.50;;;49.53;;
6292;SDS011;3179;54.350;10.102;2023-12-07T02:36:44;125.67;;;52.77;;
6292;SDS011;3179;54.350;10.102;2023-12-07T02:39:14;124.30;;;49.60;;
6292;SDS011;3179;54.350;10.102;2023-12-07T02:41:41;114.83;;;46.23;;
6292;SDS011;3179;54.350;10.102;2023-12-07T02:44:12;120.53;;;51.73;;
6292;SDS011;3179;54.350;10.102;2023-12-07T02:46:40;132.80;;;53.70;;
6292;SDS011;3179;54.350;10.102;2023-12-07T02:49:07;122.73;;;52.73;;
6292;SDS011;3179;54.350;10.102;2023-12-07T02:51:34;129.97;;;45.80;;
6292;SDS011;3179;54.350;10.102;2023-12-07T02:54:01;131.63;;;52.67;;
6292;SDS011;3179;54.350;10.102;2023-12-07T02:56:28;138.87;;;55.00;;
6292;SDS011;3179;54.350;10.102;2023-12-07T02:58:55;135.90;;;54.27;;
6292;SDS011;3179;54.350;10.102;2023-12-07T03:01:22;116.33;;;48.50;;
6292;SDS011;3179;54.350;10.102;2023-12-07T03:03:50;135.37;;;56.00;;
6292;SDS011;3179;54.350;10.102;2023-12-07T03:06:17;125.20;;;53.53;;
6292;SDS011;3179;54.350;10.102;2023-12-07T03:08:44;127.17;;;55.40;;
6292;SDS011;3179;54.350;10.102;2023-12-07T03:11:11;133.83;;;53.27;;
6292;SDS011;3179;54.350;10.102;2023-12-07T03:13:38;127.90;;;50.53;;
6292;SDS011;3179;54.350;10.102;2023-12-07T03:16:06;131.87;;;55.07;;
6292;SDS011;3179;54.350;10.102;2023-12-07T03:18:34;127.57;;;54.47;;
6292;SDS011;3179;54.350;10.102;2023-12-07T03:21:03;138.33;;;53.27;;
6292;SDS011;3179;54.350;10.102;2023-12-07T03:23:30;129.40;;;53.27;;
6292;SDS011;3179;54.350;10.102;2023-12-07T03:25:57;132.87;;;52.30;;
6292;SDS011;3179;54.350;10.102;2023-12-07T03:28:24;145.83;;;57.67;;
6292;SDS011;3179;54.350;10.102;2023-12-07T03:30:50;129.33;;;53.67;;
6292;SDS011;3179;54.350;10.102;2023-12-07T03:33:17;132.73;;;54.93;;
6292;SDS011;3179;54.350;10.102;2023-12-07T03:35:44;127.33;;;53.93;;
6292;SDS011;3179;54.350;10.102;2023-12-07T03:38:12;142.70;;;56.67;;
6292;SDS011;3179;54.350;10.102;2023-12-07T03:40:40;133.57;;;55.70;;
6292;SDS011;3179;54.350;10.102;2023-12-07T03:43:06;144.73;;;58.73;;
6292;SDS011;3179;54.350;10.102;2023-12-07T03:45:33;127.63;;;51.63;;
6292;SDS011;3179;54.350;10.102;2023-12-07T03:48:00;142.00;;;51.50;;
6292;SDS011;3179;54.350;10.102;2023-12-07T03:50:27;134.17;;;52.90;;
6292;SDS011;3179;54.350;10.102;2023-12-07T03:52:54;140.50;;;59.27;;
6292;SDS011;3179;54.350;10.102;2023-12-07T03:55:22;127.93;;;54.30;;
6292;SDS011;3179;54.350;10.102;2023-12-07T03:57:49;115.23;;;49.23;;
6292;SDS011;3179;54.350;10.102;2023-12-07T04:00:16;130.10;;;54.60;;
6292;SDS011;3179;54.350;10.102;2023-12-07T04:02:43;127.77;;;56.80;;
6292;SDS011;3179;54.350;10.102;2023-12-07T04:05:09;129.03;;;55.80;;
6292;SDS011;3179;54.350;10.102;2023-12-07T04:07:37;132.93;;;51.00;;
6292;SDS011;3179;54.350;10.102;2023-12-07T04:10:04;117.97;;;53.17;;
6292;SDS011;3179;54.350;10.102;2023-12-07T04:12:33;124.83;;;55.87;;
6292;SDS011;3179;54.350;10.102;2023-12-07T04:15:00;126.87;;;56.63;;
6292;SDS011;3179;54.350;10.102;2023-12-07T04:17:27;124.87;;;49.00;;
6292;SDS011;3179;54.350;10.102;2023-12-07T04:19:53;127.33;;;52.37;;
6292;SDS011;3179;54.350;10.102;2023-12-07T04:22:20;132.10;;;56.47;;
6292;SDS011;3179;54.350;10.102;2023-12-07T04:24:47;123.33;;;55.40;;
6292;SDS011;3179;54.350;10.102;2023-12-07T04:27:14;121.70;;;55.60;;
6292;SDS011;3179;54.350;10.102;2023-12-07T04:29:43;121.97;;;56.20;;
6292;SDS011;3179;54.350;10.102;2023-12-07T04:32:09;125.60;;;56.07;;
6292;SDS011;3179;54.350;10.102;2023-12-07T04:34:36;130.70;;;58.03;;
6292;SDS011;3179;54.350;10.102;2023-12-07T04:37:03;135.03;;;56.43;;
6292;SDS011;3179;54.350;10.102;2023-12-07T04:39:30;129.93;;;58.70;;
6292;SDS011;3179;54.350;10.102;2023-12-07T04:41:57;151.53;;;61.00;;
6292;SDS011;3179;54.350;10.102;2023-12-07T04:44:24;133.83;;;60.20;;
6292;SDS011;3179;54.350;10.102;2023-12-07T04:46:52;131.87;;;58.83;;
6292;SDS011;3179;54.350;10.102;2023-12-07T04:49:20;119.40;;;57.80;;
6292;SDS011;3179;54.350;10.102;2023-12-07T04:51:47;129.57;;;55.77;;
6292;SDS011;3179;54.350;10.102;2023-12-07T04:54:13;120.37;;;54.60;;
6292;SDS011;3179;54.350;10.102;2023-12-07T04:56:40;126.43;;;58.37;;
6292;SDS011;3179;54.350;10.102;2023-12-07T04:59:07;126.80;;;57.60;;
6292;SDS011;3179;54.350;10.102;2023-12-07T05:01:35;124.53;;;50.43;;
6292;SDS011;3179;54.350;10.102;2023-12-07T05:04:03;132.53;;;54.17;;
6292;SDS011;3179;54.350;10.102;2023-12-07T05:06:30;131.80;;;58.00;;
6292;SDS011;3179;54.350;10.102;2023-12-07T05:08:58;126.30;;;56.37;;
6292;SDS011;3179;54.350;10.102;2023-12-07T05:11:24;122.23;;;50.70;;
6292;SDS011;3179;54.350;10.102;2023-12-07T05:13:52;132.20;;;60.97;;
6292;SDS011;3179;54.350;10.102;2023-12-07T05:16:19;136.23;;;61.93;;
6292;SDS011;3179;54.350;10.102;2023-12-07T05:18:46;128.50;;;55.40;;
6292;SDS011;3179;54.350;10.102;2023-12-07T05:21:14;133.53;;;56.57;;
6292;SDS011;3179;54.350;10.102;2023-12-07T05:23:41;137.70;;;59.30;;
6292;SDS011;3179;54.350;10.102;2023-12-07T05:26:08;139.93;;;61.90;;
6292;SDS011;3179;54.350;10.102;2023-12-07T05:28:36;142.53;;;61.87;;
6292;SDS011;3179;54.350;10.102;2023-12-07T05:31:03;139.53;;;59.50;;
6292;SDS011;3179;54.350;10.102;2023-12-07T05:33:30;135.30;;;59.67;;
6292;SDS011;3179;54.350;10.102;2023-12-07T05:35:57;132.87;;;57.83;;
6292;SDS011;3179;54.350;10.102;2023-12-07T05:38:25;133.73;;;57.37;;
6292;SDS011;3179;54.350;10.102;2023-12-07T05:40:52;129.03;;;56.30;;
6292;SDS011;3179;54.350;10.102;2023-12-07T05:43:19;129.23;;;57.10;;
6292;SDS011;3179;54.350;10.102;2023-12-07T05:45:45;132.43;;;60.07;;
6292;SDS011;3179;54.350;10.102;2023-12-07T05:48:12;146.00;;;61.70;;
6292;SDS011;3179;54.350;10.102;2023-12-07T05:50:39;128.30;;;56.83;;
6292;SDS011;3179;54.350;10.102;2023-12-07T05:53:06;126.97;;;55.90;;
6292;SDS011;3179;54.350;10.102;2023-12-07T05:55:35;138.97;;;59.90;;
6292;SDS011;3179;54.350;10.102;2023-12-07T05:58:02;148.07;;;60.57;;
6292;SDS011;3179;54.350;10.102;2023-12-07T06:00:29;126.87;;;57.87;;
6292;SDS011;3179;54.350;10.102;2023-12-07T06:02:56;130.77;;;57.40;;
6292;SDS011;3179;54.350;10.102;2023-12-07T06:05:24;142.03;;;59.00;;
6292;SDS011;3179;54.350;10.102;2023-12-07T06:07:51;151.93;;;63.67;;
6292;SDS011;3179;54.350;10.102;2023-12-07T06:10:20;140.60;;;59.67;;
6292;SDS011;3179;54.350;10.102;2023-12-07T06:12:48;125.93;;;57.33;;
6292;SDS011;3179;54.350;10.102;2023-12-07T06:15:15;128.00;;;51.70;;
6292;SDS011;3179;54.350;10.102;2023-12-07T06:17:42;131.97;;;51.20;;
6292;SDS011;3179;54.350;10.102;2023-12-07T06:20:09;118.97;;;54.10;;
6292;SDS011;3179;54.350;10.102;2023-12-07T06:22:37;127.53;;;55.83;;
6292;SDS011;3179;54.350;10.102;2023-12-07T06:25:04;131.13;;;52.53;;
6292;SDS011;3179;54.350;10.102;2023-12-07T06:27:33;107.70;;;52.73;;
6292;SDS011;3179;54.350;10.102;2023-12-07T06:30:01;117.60;;;50.30;;
6292;SDS011;3179;54.350;10.102;2023-12-07T06:32:30;134.30;;;52.20;;
6292;SDS011;3179;54.350;10.102;2023-12-07T06:34:57;116.57;;;49.90;;
6292;SDS011;3179;54.350;10.102;2023-12-07T06:37:24;135.03;;;58.57;;
6292;SDS011;3179;54.350;10.102;2023-12-07T06:39:51;116.53;;;53.20;;
6292;SDS011;3179;54.350;10.102;2023-12-07T06:42:18;123.77;;;54.50;;
6292;SDS011;3179;54.350;10.102;2023-12-07T06:44:46;134.13;;;56.37;;
6292;SDS011;3179;54.350;10.102;2023-12-07T06:47:15;117.77;;;52.70;;
6292;SDS011;3179;54.350;10.102;2023-12-07T06:49:42;116.07;;;53.93;;
6292;SDS011;3179;54.350;10.102;2023-12-07T06:52:08;125.37;;;51.63;;
6292;SDS011;3179;54.350;10.102;2023-12-07T06:54:36;130.50;;;56.80;;
6292;SDS011;3179;54.350;10.102;2023-12-07T06:57:03;121.13;;;50.30;;
6292;SDS011;3179;54.350;10.102;2023-12-07T06:59:31;127.47;;;57.00;;
6292;SDS011;3179;54.350;10.102;2023-12-07T07:01:58;116.77;;;53.23;;
6292;SDS011;3179;54.350;10.102;2023-12-07T07:04:26;117.67;;;54.87;;
6292;SDS011;3179;54.350;10.102;2023-12-07T07:06:54;118.50;;;52.00;;
6292;SDS011;3179;54.350;10.102;2023-12-07T07:09:21;106.40;;;50.27;;
6292;SDS011;3179;54.350;10.102;2023-12-07T07:11:48;112.93;;;52.60;;
6292;SDS011;3179;54.350;10.102;2023-12-07T07:14:15;121.27;;;50.20;;
6292;SDS011;3179;54.350;10.102;2023-12-07T07:16:42;126.63;;;55.07;;
6292;SDS011;3179;54.350;10.102;2023-12-07T07:19:10;133.03;;;59.50;;
6292;SDS011;3179;54.350;10.102;2023-12-07T07:21:38;133.50;;;54.23;;
6292;SDS011;3179;54.350;10.102;2023-12-07T07:24:05;133.23;;;55.80;;
6292;SDS011;3179;54.350;10.102;2023-12-07T07:26:32;108.10;;;50.13;;
6292;SDS011;3179;54.350;10.102;2023-12-07T07:28:59;114.87;;;52.23;;
6292;SDS011;3179;54.350;10.102;2023-12-07T07:31:26;125.33;;;54.07;;
6292;SDS011;3179;54.350;10.102;2023-12-07T07:33:53;119.23;;;54.10;;
6292;SDS011;3179;54.350;10.102;2023-12-07T07:36:20;116.20;;;49.53;;
6292;SDS011;3179;54.350;10.102;2023-12-07T07:38:48;126.13;;;55.30;;
6292;SDS011;3179;54.350;10.102;2023-12-07T07:41:15;119.97;;;51.33;;
6292;SDS011;3179;54.350;10.102;2023-12-07T07:43:42;125.93;;;54.97;;
6292;SDS011;3179;54.350;10.102;2023-12-07T07:46:10;108.53;;;42.77;;
6292;SDS011;3179;54.350;10.102;2023-12-07T07:48:36;100.20;;;42.60;;
6292;SDS011;3179;54.350;10.102;2023-12-07T07:51:04;101.00;;;46.93;;
6292;SDS011;3179;54.350;10.102;2023-12-07T07:53:31;112.17;;;48.47;;
6292;SDS011;3179;54.350;10.102;2023-12-07T07:55:59;112.03;;;49.37;;
6292;SDS011;3179;54.350;10.102;2023-12-07T07:58:26;104.23;;;41.43;;
6292;SDS011;3179;54.350;10.102;2023-12-07T08:00:53;118.30;;;47.40;;
6292;SDS011;3179;54.350;10.102;2023-12-07T08:03:20;102.43;;;46.83;;
6292;SDS011;3179;54.350;10.102;2023-12-07T08:05:48;108.37;;;44.93;;
6292;SDS011;3179;54.350;10.102;2023-12-07T08:08:15;108.27;;;45.77;;
6292;SDS011;3179;54.350;10.102;2023-12-07T08:10:42;110.90;;;47.33;;
6292;SDS011;3179;54.350;10.102;2023-12-07T08:13:10;112.33;;;49.30;;
6292;SDS011;3179;54.350;10.102;2023-12-07T08:15:37;111.03;;;48.57;;
6292;SDS011;3179;54.350;10.102;2023-12-07T08:18:04;112.70;;;46.37;;
6292;SDS011;3179;54.350;10.102;2023-12-07T08:20:31;111.40;;;48.70;;
6292;SDS011;3179;54.350;10.102;2023-12-07T08:22:58;105.07;;;45.07;;
6292;SDS011;3179;54.350;10.102;2023-12-07T08:25:25;113.37;;;46.40;;
6292;SDS011;3179;54.350;10.102;2023-12-07T08:27:52;94.10;;;39.57;;
6292;SDS011;3179;54.350;10.102;2023-12-07T08:30:20;106.80;;;40.53;;
6292;SDS011;3179;54.350;10.102;2023-12-07T08:32:47;106.93;;;40.83;;
6292;SDS011;3179;54.350;10.102;2023-12-07T08:35:14;114.03;;;46.10;;
6292;SDS011;3179;54.350;10.102;2023-12-07T08:37:41;112.30;;;44.83;;
6292;SDS011;3179;54.350;10.102;2023-12-07T08:40:08;100.10;;;40.40;;
6292;SDS011;3179;54.350;10.102;2023-12-07T08:42:40;124.77;;;48.50;;
6292;SDS011;3179;54.350;10.102;2023-12-07T08:45:07;88.93;;;35.60;;
6292;SDS011;3179;54.350;10.102;2023-12-07T08:47:36;81.97;;;36.37;;
6292;SDS011;3179;54.350;10.102;2023-12-07T08:50:03;80.50;;;32.83;;
6292;SDS011;3179;54.350;10.102;2023-12-07T08:52:30;90.80;;;35.53;;
6292;SDS011;3179;54.350;10.102;2023-12-07T08:54:57;91.47;;;37.17;;
6292;SDS011;3179;54.350;10.102;2023-12-07T08:57:24;109.20;;;41.73;;
6292;SDS011;3179;54.350;10.102;2023-12-07T08:59:51;110.27;;;44.70;;
6292;SDS011;3179;54.350;10.102;2023-12-07T09:02:19;100.00;;;39.20;;
6292;SDS011;3179;54.350;10.102;2023-12-07T09:04:48;100.43;;;38.13;;
6292;SDS011;3179;54.350;10.102;2023-12-07T09:07:16;126.43;;;46.67;;
6292;SDS011;3179;54.350;10.102;2023-12-07T09:09:44;115.00;;;42.60;;
6292;SDS011;3179;54.350;10.102;2023-12-07T09:12:12;108.67;;;44.30;;
6292;SDS011;3179;54.350;10.102;2023-12-07T09:14:39;115.83;;;46.97;;
6292;SDS011;3179;54.350;10.102;2023-12-07T09:17:06;112.77;;;44.00;;
6292;SDS011;3179;54.350;10.102;2023-12-07T09:19:33;118.00;;;47.63;;
6292;SDS011;3179;54.350;10.102;2023-12-07T09:22:01;111.20;;;42.73;;
6292;SDS011;3179;54.350;10.102;2023-12-07T09:24:28;114.70;;;46.50;;
6292;SDS011;3179;54.350;10.102;2023-12-07T09:26:55;122.97;;;49.00;;
6292;SDS011;3179;54.350;10.102;2023-12-07T09:29:22;108.23;;;42.63;;
6292;SDS011;3179;54.350;10.102;2023-12-07T09:31:49;112.90;;;44.93;;
6292;SDS011;3179;54.350;10.102;2023-12-07T09:34:16;113.77;;;38.30;;
6292;SDS011;3179;54.350;10.102;2023-12-07T09:36:43;103.13;;;43.70;;
6292;SDS011;3179;54.350;10.102;2023-12-07T09:39:12;99.80;;;43.10;;
6292;SDS011;3179;54.350;10.102;2023-12-07T09:41:39;103.00;;;37.63;;
6292;SDS011;3179;54.350;10.102;2023-12-07T09:44:09;107.03;;;39.30;;
6292;SDS011;3179;54.350;10.102;2023-12-07T09:46:35;105.07;;;40.97;;
6292;SDS011;3179;54.350;10.102;2023-12-07T09:49:03;105.27;;;43.50;;
6292;SDS011;3179;54.350;10.102;2023-12-07T09:51:30;92.20;;;38.37;;
6292;SDS011;3179;54.350;10.102;2023-12-07T09:53:58;101.43;;;43.70;;
6292;SDS011;3179;54.350;10.102;2023-12-07T09:56:26;98.93;;;38.80;;
6292;SDS011;3179;54.350;10.102;2023-12-07T09:58:53;106.33;;;41.43;;
6292;SDS011;3179;54.350;10.102;2023-12-07T10:01:20;91.70;;;37.93;;
6292;SDS011;3179;54.350;10.102;2023-12-07T10:04:07;105.00;;;44.70;;
6292;SDS011;3179;54.350;10.102;2023-12-07T10:06:42;104.27;;;43.20;;
6292;SDS011;3179;54.350;10.102;2023-12-07T10:09:10;123.53;;;45.70;;
6292;SDS011;3179;54.350;10.102;2023-12-07T10:11:38;100.27;;;38.33;;
6292;SDS011;3179;54.350;10.102;2023-12-07T10:14:06;100.10;;;41.30;;
6292;SDS011;3179;54.350;10.102;2023-12-07T10:16:34;97.07;;;42.33;;
6292;SDS011;3179;54.350;10.102;2023-12-07T10:19:11;102.27;;;39.63;;
6292;SDS011;3179;54.350;10.102;2023-12-07T10:21:39;100.97;;;41.07;;
6292;SDS011;3179;54.350;10.102;2023-12-07T10:24:06;92.47;;;40.70;;
6292;SDS011;3179;54.350;10.102;2023-12-07T10:26:33;102.90;;;45.30;;
6292;SDS011;3179;54.350;10.102;2023-12-07T10:29:03;105.67;;;41.27;;
6292;SDS011;3179;54.350;10.102;2023-12-07T10:31:31;96.80;;;39.37;;
6292;SDS011;3179;54.350;10.102;2023-12-07T10:33:58;104.30;;;43.87;;
6292;SDS011;3179;54.350;10.102;2023-12-07T10:36:25;111.23;;;40.87;;
6292;SDS011;3179;54.350;10.102;2023-12-07T10:38:52;103.23;;;38.87;;
6292;SDS011;3179;54.350;10.102;2023-12-07T10:41:20;104.03;;;41.57;;
6292;SDS011;3179;54.350;10.102;2023-12-07T10:43:48;101.13;;;37.23;;
6292;SDS011;3179;54.350;10.102;2023-12-07T10:46:19;96.90;;;37.87;;
6292;SDS011;3179;54.350;10.102;2023-12-07T10:48:48;99.60;;;39.70;;
6292;SDS011;3179;54.350;10.102;2023-12-07T10:51:18;92.47;;;39.87;;
6292;SDS011;3179;54.350;10.102;2023-12-07T10:53:49;110.20;;;44.70;;
6292;SDS011;3179;54.350;10.102;2023-12-07T10:56:20;106.57;;;41.17;;
6292;SDS011;3179;54.350;10.102;2023-12-07T10:58:54;98.10;;;41.37;;
6292;SDS011;3179;54.350;10.102;2023-12-07T11:01:24;112.73;;;44.00;;
6292;SDS011;3179;54.350;10.102;2023-12-07T11:03:51;106.47;;;42.63;;
6292;SDS011;3179;54.350;10.102;2023-12-07T11:06:19;120.80;;;46.40;;
6292;SDS011;3179;54.350;10.102;2023-12-07T11:08:47;111.03;;;40.97;;
6292;SDS011;3179;54.350;10.102;2023-12-07T11:11:20;110.57;;;42.17;;
6292;SDS011;3179;54.350;10.102;2023-12-07T11:13:56;121.23;;;43.30;;
6292;SDS011;3179;54.350;10.102;2023-12-07T11:16:30;109.80;;;44.47;;
6292;SDS011;3179;54.350;10.102;2023-12-07T11:18:57;106.00;;;39.43;;
6292;SDS011;3179;54.350;10.102;2023-12-07T11:21:25;104.83;;;40.03;;
6292;SDS011;3179;54.350;10.102;2023-12-07T11:23:52;99.50;;;35.67;;
6292;SDS011;3179;54.350;10.102;2023-12-07T11:26:19;104.80;;;39.13;;
6292;SDS011;3179;54.350;10.102;2023-12-07T11:28:46;98.03;;;37.97;;
6292;SDS011;3179;54.350;10.102;2023-12-07T11:31:13;100.60;;;41.60;;
6292;SDS011;3179;54.350;10.102;2023-12-07T11:33:43;103.93;;;39.93;;
6292;SDS011;3179;54.350;10.102;2023-12-07T11:36:10;111.30;;;39.87;;
6292;SDS011;3179;54.350;10.102;2023-12-07T11:38:39;114.47;;;43.60;;
6292;SDS011;3179;54.350;10.102;2023-12-07T11:41:43;99.30;;;41.00;;
6292;SDS011;3179;54.350;10.102;2023-12-07T11:44:11;102.53;;;42.93;;
6292;SDS011;3179;54.350;10.102;2023-12-07T11:46:38;100.13;;;37.63;;
6292;SDS011;3179;54.350;10.102;2023-12-07T11:49:06;100.90;;;36.57;;
6292;SDS011;3179;54.350;10.102;2023-12-07T11:51:36;95.20;;;40.47;;
6292;SDS011;3179;54.350;10.102;2023-12-07T11:54:03;98.20;;;40.87;;
6292;SDS011;3179;54.350;10.102;2023-12-07T11:56:30;102.27;;;41.30;;
6292;SDS011;3179;54.350;10.102;2023-12-07T11:58:58;110.60;;;43.17;;
6292;SDS011;3179;54.350;10.102;2023-12-07T12:01:25;93.03;;;35.83;;
6292;SDS011;3179;54.350;10.102;2023-12-07T12:03:55;92.70;;;36.27;;
6292;SDS011;3179;54.350;10.102;2023-12-07T12:06:24;91.03;;;37.90;;
6292;SDS011;3179;54.350;10.102;2023-12-07T12:08:51;97.03;;;40.40;;
6292;SDS011;3179;54.350;10.102;2023-12-07T12:11:18;102.03;;;40.30;;
6292;SDS011;3179;54.350;10.102;2023-12-07T12:13:45;98.77;;;36.90;;
6292;SDS011;3179;54.350;10.102;2023-12-07T12:16:14;107.20;;;40.47;;
6292;SDS011;3179;54.350;10.102;2023-12-07T12:18:41;97.00;;;39.60;;
6292;SDS011;3179;54.350;10.102;2023-12-07T12:21:08;97.53;;;37.07;;
6292;SDS011;3179;54.350;10.102;2023-12-07T12:23:36;99.77;;;41.97;;
6292;SDS011;3179;54.350;10.102;2023-12-07T12:26:05;114.77;;;44.87;;
6292;SDS011;3179;54.350;10.102;2023-12-07T12:28:35;98.97;;;39.33;;
6292;SDS011;3179;54.350;10.102;2023-12-07T12:31:07;104.83;;;44.17;;
6292;SDS011;3179;54.350;10.102;2023-12-07T12:33:36;104.50;;;39.50;;
6292;SDS011;3179;54.350;10.102;2023-12-07T12:36:03;106.80;;;40.77;;
6292;SDS011;3179;54.350;10.102;2023-12-07T12:38:32;103.90;;;40.87;;
6292;SDS011;3179;54.350;10.102;2023-12-07T12:41:01;109.47;;;42.40;;
6292;SDS011;3179;54.350;10.102;2023-12-07T12:43:29;122.17;;;45.30;;
6292;SDS011;3179;54.350;10.102;2023-12-07T12:45:57;117.43;;;43.53;;
6292;SDS011;3179;54.350;10.102;2023-12-07T12:48:24;108.17;;;43.33;;
6292;SDS011;3179;54.350;10.102;2023-12-07T12:50:50;113.03;;;41.70;;
6292;SDS011;3179;54.350;10.102;2023-12-07T12:53:17;102.40;;;37.27;;
6292;SDS011;3179;54.350;10.102;2023-12-07T12:55:45;121.73;;;42.37;;
6292;SDS011;3179;54.350;10.102;2023-12-07T12:58:14;103.37;;;41.60;;
6292;SDS011;3179;54.350;10.102;2023-12-07T13:00:42;108.10;;;42.90;;
6292;SDS011;3179;54.350;10.102;2023-12-07T13:03:09;106.97;;;44.73;;
6292;SDS011;3179;54.350;10.102;2023-12-07T13:05:38;93.33;;;40.17;;
6292;SDS011;3179;54.350;10.102;2023-12-07T13:08:05;88.50;;;35.60;;
6292;SDS011;3179;54.350;10.102;2023-12-07T13:10:33;107.63;;;43.00;;
6292;SDS011;3179;54.350;10.102;2023-12-07T13:13:00;105.23;;;42.67;;
6292;SDS011;3179;54.350;10.102;2023-12-07T13:15:29;98.77;;;42.17;;
6292;SDS011;3179;54.350;10.102;2023-12-07T13:17:56;100.60;;;37.80;;
6292;SDS011;3179;54.350;10.102;2023-12-07T13:20:23;101.07;;;38.37;;
6292;SDS011;3179;54.350;10.102;2023-12-07T13:22:50;92.37;;;40.47;;
6292;SDS011;3179;54.350;10.102;2023-12-07T13:25:17;93.77;;;39.00;;
6292;SDS011;3179;54.350;10.102;2023-12-07T13:27:43;90.50;;;33.40;;
6292;SDS011;3179;54.350;10.102;2023-12-07T13:30:10;99.07;;;39.90;;
6292;SDS011;3179;54.350;10.102;2023-12-07T13:32:39;106.43;;;42.87;;
6292;SDS011;3179;54.350;10.102;2023-12-07T13:35:06;99.53;;;38.87;;
6292;SDS011;3179;54.350;10.102;2023-12-07T13:37:34;89.13;;;38.73;;
6292;SDS011;3179;54.350;10.102;2023-12-07T13:40:01;93.57;;;37.70;;
6292;SDS011;3179;54.350;10.102;2023-12-07T13:42:30;95.70;;;40.00;;
6292;SDS011;3179;54.350;10.102;2023-12-07T13:44:57;98.43;;;39.97;;
6292;SDS011;3179;54.350;10.102;2023-12-07T13:47:25;99.73;;;39.20;;
6292;SDS011;3179;54.350;10.102;2023-12-07T13:49:57;100.10;;;39.20;;
6292;SDS011;3179;54.350;10.102;2023-12-07T13:52:25;101.93;;;40.30;;
6292;SDS011;3179;54.350;10.102;2023-12-07T13:54:53;94.47;;;41.17;;
6292;SDS011;3179;54.350;10.102;2023-12-07T13:57:21;99.03;;;40.90;;
6292;SDS011;3179;54.350;10.102;2023-12-07T13:59:49;91.43;;;38.40;;
6292;SDS011;3179;54.350;10.102;2023-12-07T14:02:16;96.70;;;41.40;;
6292;SDS011;3179;54.350;10.102;2023-12-07T14:04:43;104.07;;;38.03;;
6292;SDS011;3179;54.350;10.102;2023-12-07T14:07:12;99.93;;;38.60;;
6292;SDS011;3179;54.350;10.102;2023-12-07T14:09:40;87.53;;;36.90;;
6292;SDS011;3179;54.350;10.102;2023-12-07T14:12:08;84.60;;;35.30;;
6292;SDS011;3179;54.350;10.102;2023-12-07T14:14:38;89.03;;;37.00;;
6292;SDS011;3179;54.350;10.102;2023-12-07T14:17:04;79.20;;;33.13;;
6292;SDS011;3179;54.350;10.102;2023-12-07T14:19:31;93.20;;;38.17;;
6292;SDS011;3179;54.350;10.102;2023-12-07T14:22:00;92.77;;;36.70;;
6292;SDS011;3179;54.350;10.102;2023-12-07T14:24:29;88.33;;;38.10;;
6292;SDS011;3179;54.350;10.102;2023-12-07T14:26:56;93.23;;;40.70;;